Martock, United Kingdom
Current Conditions -  °F | °C
As of 2:50 AM on Friday 19 Dec 2014 (Local Time) from EGDY Reporting Station
Drizzle Drizzle  
Wind Chill: 54°   Ceiling: 1300
Heat Index: 54°   Visibility: 4mi
Dew Point: 52°   Wind: 13mph
Humidity: 94%   Direction: 230°SW
Pressure: 29.83"   Gusts: NA
Location:  50.97°N, 2.77°W
Report Text: EGDY 190250Z AUTO 23011KT 7000 -DZ BKN013/// BKN022/// 12/11 Q1010
Loading
Personal Weather Stations






























Interactive Weather Map New forecast layout! Learn more

10-Day Weather Forecast

Advertisements
Track Severe Weather on mobile